createdAt,value
2023-04-23T00:02:02.811Z,7.12
2023-04-23T00:06:08.013Z,7.12
2023-04-23T00:10:10.667Z,7.12
2023-04-23T00:14:13.047Z,7.13
2023-04-23T00:18:17.101Z,6.94
2023-04-23T00:22:20.451Z,7.05
2023-04-23T00:26:22.466Z,7.01
2023-04-23T00:30:24.666Z,6.98
2023-04-23T00:34:26.767Z,6.94
2023-04-23T00:38:28.802Z,6.82
2023-04-23T00:42:31.656Z,6.82
2023-04-23T00:46:33.872Z,6.73
2023-04-23T00:50:35.989Z,6.83
2023-04-23T00:54:38.064Z,6.84
2023-04-23T00:58:41.276Z,6.83
2023-04-23T01:02:44.418Z,6.90
2023-04-23T01:06:49.973Z,6.95
2023-04-23T01:10:53.277Z,6.96
2023-04-23T01:14:55.856Z,6.84
2023-04-23T01:18:58.477Z,6.71
2023-04-23T01:23:00.620Z,6.77
2023-04-23T01:27:02.758Z,6.75
2023-04-23T01:31:05.465Z,6.69
2023-04-23T01:35:08.227Z,6.67
2023-04-23T01:39:10.482Z,6.62
2023-04-23T01:43:12.515Z,6.50
2023-04-23T01:47:16.505Z,6.38
2023-04-23T01:51:19.102Z,6.46
2023-04-23T01:55:21.512Z,6.41
2023-04-23T01:59:23.600Z,6.37
2023-04-23T02:03:25.846Z,6.27
2023-04-23T02:07:28.088Z,6.13
2023-04-23T02:11:30.333Z,6.13
2023-04-23T02:15:32.597Z,6.26
2023-04-23T02:19:35.849Z,6.28
2023-04-23T02:23:38.710Z,6.24
2023-04-23T02:27:41.199Z,6.24
2023-04-23T02:31:43.228Z,6.21
2023-04-23T02:35:45.349Z,6.11
2023-04-23T02:39:47.376Z,6.17
2023-04-23T02:43:49.442Z,6.08
2023-04-23T02:47:53.377Z,6.02
2023-04-23T02:51:55.685Z,5.97
2023-04-23T02:55:57.808Z,5.95
2023-04-23T02:59:59.874Z,5.86
2023-04-23T03:04:09.544Z,5.85
2023-04-23T03:08:11.771Z,5.87
2023-04-23T03:12:13.914Z,5.85
2023-04-23T03:16:16.747Z,5.84
2023-04-23T03:20:19.574Z,5.77
2023-04-23T03:24:22.011Z,5.72
2023-04-23T03:28:24.188Z,5.69
2023-04-23T03:32:26.228Z,5.77
2023-04-23T03:36:28.408Z,5.87
2023-04-23T03:40:31.057Z,5.90
2023-04-23T03:44:37.104Z,5.99
2023-04-23T03:48:39.296Z,6.03
2023-04-23T03:52:47.042Z,6.20
2023-04-23T03:56:59.697Z,6.29
2023-04-23T04:01:04.237Z,6.47
2023-04-23T04:05:07.409Z,6.65
2023-04-23T04:09:09.602Z,6.82
2023-04-23T04:13:11.693Z,6.98
2023-04-23T04:17:15.941Z,7.17
2023-04-23T04:21:19.070Z,7.42
2023-04-23T04:25:22.296Z,7.50
2023-04-23T04:29:24.428Z,7.75
2023-04-23T04:33:26.775Z,7.79
2023-04-23T04:37:28.724Z,8.01
2023-04-23T04:41:30.921Z,8.22
2023-04-23T04:45:33.087Z,8.36
2023-04-23T04:49:36.030Z,8.52
2023-04-23T04:53:38.191Z,8.75
2023-04-23T04:57:40.355Z,8.89
2023-04-23T05:01:43.229Z,9.08
2023-04-23T05:05:45.799Z,9.32
2023-04-23T05:09:47.821Z,9.61
2023-04-23T05:13:49.908Z,9.85
2023-04-23T05:17:53.762Z,10.07
2023-04-23T05:21:56.605Z,10.30
2023-04-23T05:25:58.883Z,10.49
2023-04-23T05:30:06.126Z,10.81
2023-04-23T05:34:08.230Z,10.96
2023-04-23T05:38:10.497Z,11.09
2023-04-23T05:42:13.235Z,11.37
2023-04-23T05:46:15.253Z,11.74
2023-04-23T05:50:18.247Z,12.05
2023-04-23T05:54:20.304Z,12.38
2023-04-23T05:58:22.732Z,12.64
2023-04-23T06:02:25.478Z,12.89
2023-04-23T06:06:28.034Z,12.98
2023-04-23T06:10:30.268Z,13.24
2023-04-23T06:14:32.415Z,13.54
2023-04-23T06:18:35.465Z,13.74
2023-04-23T06:22:37.567Z,14.11
2023-04-23T06:26:39.572Z,14.38
2023-04-23T06:30:48.000Z,14.70
2023-04-23T06:35:00.310Z,14.88
2023-04-23T06:39:04.169Z,15.13
2023-04-23T06:43:07.909Z,15.33
2023-04-23T06:47:28.290Z,15.81
2023-04-23T06:51:32.028Z,16.20
2023-04-23T06:55:34.263Z,16.29
2023-04-23T06:59:36.307Z,16.47
2023-04-23T07:03:38.553Z,16.77
2023-04-23T07:07:43.471Z,16.82
2023-04-23T07:11:45.689Z,16.88
2023-04-23T07:15:49.061Z,17.19
2023-04-23T07:19:51.310Z,17.34
2023-04-23T07:23:54.393Z,17.38
2023-04-23T07:27:56.851Z,17.33
2023-04-23T07:31:59.173Z,17.71
2023-04-23T07:36:01.643Z,17.57
2023-04-23T07:40:05.527Z,17.92
2023-04-23T07:44:08.607Z,18.14
2023-04-23T07:48:10.830Z,18.42
2023-04-23T07:52:12.850Z,18.60
2023-04-23T07:56:14.927Z,18.69
2023-04-23T08:00:17.237Z,18.94
2023-04-23T08:04:19.656Z,18.94
2023-04-23T08:08:21.868Z,19.00
2023-04-23T08:12:23.891Z,19.38
2023-04-23T08:16:26.284Z,19.47
2023-04-23T08:20:28.555Z,19.65
2023-04-23T08:24:30.956Z,19.75
2023-04-23T08:28:33.091Z,19.31
2023-04-23T08:32:35.272Z,19.37
2023-04-23T08:36:37.862Z,19.46
2023-04-23T08:40:41.411Z,19.56
2023-04-23T08:44:46.688Z,19.57
2023-04-23T08:48:52.896Z,20.02
2023-04-23T08:52:56.632Z,20.04
2023-04-23T08:56:59.390Z,19.87
2023-04-23T09:01:02.010Z,19.88
2023-04-23T09:05:05.143Z,20.06
2023-04-23T09:09:08.178Z,20.08
2023-04-23T09:13:12.603Z,20.22
2023-04-23T09:17:14.607Z,20.29
2023-04-23T09:21:16.770Z,20.24
2023-04-23T09:25:20.622Z,20.30
2023-04-23T09:29:24.240Z,20.60
2023-04-23T09:33:28.424Z,20.67
2023-04-23T09:37:31.082Z,20.63
2023-04-23T09:41:33.248Z,20.74
2023-04-23T09:45:35.866Z,20.84
2023-04-23T09:49:48.547Z,21.01
2023-04-23T09:53:50.851Z,21.12
2023-04-23T09:57:53.157Z,21.33
2023-04-23T10:01:55.885Z,21.60
2023-04-23T10:06:02.488Z,21.70
2023-04-23T10:10:05.483Z,21.82
2023-04-23T10:14:09.056Z,21.81
2023-04-23T10:18:11.333Z,21.60
2023-04-23T10:22:19.430Z,21.86
2023-04-23T10:26:24.133Z,21.73
2023-04-23T10:30:26.935Z,21.60
2023-04-23T10:34:30.736Z,21.80
2023-04-23T10:38:32.938Z,21.51
2023-04-23T10:42:35.814Z,21.83
2023-04-23T10:46:39.191Z,21.78
2023-04-23T10:51:00.320Z,21.91
2023-04-23T10:55:16.353Z,22.08
2023-04-23T10:59:20.653Z,21.48
2023-04-23T11:03:31.978Z,21.66
2023-04-23T11:07:33.999Z,21.91
2023-04-23T11:11:40.639Z,22.10
2023-04-23T11:15:42.980Z,21.99
2023-04-23T11:20:03.849Z,22.17
2023-04-23T11:24:07.810Z,22.40
2023-04-23T11:28:10.239Z,22.23
2023-04-23T11:32:15.582Z,22.31
2023-04-23T11:36:17.746Z,22.39
2023-04-23T11:40:20.351Z,22.37
2023-04-23T11:44:22.463Z,22.32
2023-04-23T11:48:24.646Z,22.66
2023-04-23T11:52:27.041Z,22.69
2023-04-23T11:56:32.421Z,22.69
2023-04-23T12:00:34.408Z,22.55
2023-04-23T12:04:37.503Z,22.80
2023-04-23T12:08:43.171Z,22.55
2023-04-23T12:12:49.496Z,22.79
2023-04-23T12:16:54.440Z,22.85
2023-04-23T12:21:06.711Z,22.87
2023-04-23T12:25:09.553Z,22.78
2023-04-23T12:29:13.700Z,22.98
2023-04-23T12:33:16.176Z,23.12
2023-04-23T12:37:18.256Z,23.38
2023-04-23T12:41:20.346Z,23.27
2023-04-23T12:45:22.404Z,23.27
2023-04-23T12:49:25.090Z,23.23
2023-04-23T12:53:27.979Z,23.43
2023-04-23T12:57:29.934Z,23.30
2023-04-23T13:01:33.184Z,23.48
2023-04-23T13:05:35.533Z,23.27
2023-04-23T13:09:37.745Z,23.35
2023-04-23T13:13:39.736Z,23.28
2023-04-23T13:17:41.972Z,23.35
2023-04-23T13:21:44.793Z,23.64
2023-04-23T13:25:46.842Z,23.56
2023-04-23T13:29:48.888Z,23.69
2023-04-23T13:33:50.922Z,23.47
2023-04-23T13:37:52.953Z,23.50
2023-04-23T13:42:08.824Z,23.52
2023-04-23T13:46:12.072Z,23.65
2023-04-23T13:50:14.215Z,23.48
2023-04-23T13:54:16.232Z,23.23
2023-04-23T13:58:18.422Z,23.66
2023-04-23T14:02:20.676Z,23.72
2023-04-23T14:06:23.094Z,23.82
2023-04-23T14:10:25.175Z,23.67
2023-04-23T14:14:27.439Z,23.73
2023-04-23T14:18:29.556Z,23.60
2023-04-23T14:22:32.035Z,23.76
2023-04-23T14:26:48.127Z,23.88
2023-04-23T14:30:54.547Z,23.79
2023-04-23T14:34:56.592Z,23.75
2023-04-23T14:39:02.454Z,23.75
2023-04-23T14:43:15.128Z,23.84
2023-04-23T14:47:19.234Z,23.65
2023-04-23T14:51:21.067Z,23.73
2023-04-23T14:55:23.292Z,23.82
2023-04-23T14:59:25.609Z,23.74
2023-04-23T15:03:27.984Z,23.60
2023-04-23T15:07:31.687Z,23.65
2023-04-23T15:11:34.031Z,23.56
2023-04-23T15:15:44.658Z,23.42
2023-04-23T15:19:47.368Z,23.43
2023-04-23T15:23:49.539Z,23.52
2023-04-23T15:27:57.692Z,23.51
2023-04-23T15:31:59.999Z,25.17
2023-04-23T15:36:02.111Z,27.11
2023-04-23T15:40:04.446Z,27.50
2023-04-23T15:44:08.977Z,28.03
2023-04-23T15:48:11.028Z,27.51
2023-04-23T15:52:13.170Z,27.39
2023-04-23T15:56:15.236Z,26.99
2023-04-23T16:00:18.521Z,26.41
2023-04-23T16:04:20.754Z,25.23
2023-04-23T16:08:22.875Z,24.60
2023-04-23T16:12:24.965Z,23.56
2023-04-23T16:16:27.095Z,22.74
2023-04-23T16:20:29.312Z,22.33
2023-04-23T16:24:31.385Z,21.67
2023-04-23T16:28:33.393Z,21.31
2023-04-23T16:32:36.364Z,20.99
2023-04-23T16:36:38.805Z,20.96
2023-04-23T16:40:41.290Z,20.79
2023-04-23T16:44:43.519Z,20.58
2023-04-23T16:48:46.881Z,20.41
2023-04-23T16:52:48.984Z,20.34
2023-04-23T16:56:51.330Z,20.30
2023-04-23T17:00:53.229Z,20.07
2023-04-23T17:04:55.465Z,19.84
2023-04-23T17:09:00.053Z,19.61
2023-04-23T17:13:02.281Z,19.46
2023-04-23T17:17:04.333Z,19.27
2023-04-23T17:21:06.468Z,18.96
2023-04-23T17:25:09.101Z,18.76
2023-04-23T17:29:11.558Z,18.47
2023-04-23T17:33:14.036Z,18.26
2023-04-23T17:37:16.282Z,17.99
2023-04-23T17:41:19.142Z,17.88
2023-04-23T17:45:21.372Z,17.64
2023-04-23T17:49:23.499Z,17.30
2023-04-23T17:53:25.677Z,17.03
2023-04-23T17:57:27.403Z,16.74
2023-04-23T18:01:29.582Z,16.50
2023-04-23T18:05:32.310Z,16.26
2023-04-23T18:09:34.619Z,16.11
2023-04-23T18:13:36.769Z,15.93
2023-04-23T18:17:39.489Z,15.82
2023-04-23T18:21:41.761Z,15.75
2023-04-23T18:25:43.809Z,15.65
2023-04-23T18:29:46.340Z,15.53
2023-04-23T18:33:53.832Z,15.37
2023-04-23T18:38:06.656Z,15.28
2023-04-23T18:42:08.725Z,15.23
2023-04-23T18:46:11.923Z,15.23
2023-04-23T18:50:44.123Z,15.21
2023-04-23T18:54:46.173Z,15.21
2023-04-23T18:58:48.268Z,15.17
2023-04-23T19:02:50.447Z,15.22
2023-04-23T19:06:52.574Z,15.23
2023-04-23T19:10:55.847Z,15.32
2023-04-23T19:14:59.844Z,15.30
2023-04-23T19:19:03.338Z,15.35
2023-04-23T19:23:05.398Z,15.30
2023-04-23T19:27:07.550Z,15.19
2023-04-23T19:31:10.500Z,15.12
2023-04-23T19:35:12.595Z,15.07
2023-04-23T19:39:14.665Z,14.99
2023-04-23T19:43:16.806Z,14.95
2023-04-23T19:47:19.150Z,14.83
2023-04-23T19:51:27.800Z,14.74
2023-04-23T19:55:29.845Z,14.68
2023-04-23T19:59:32.022Z,14.65
2023-04-23T20:03:34.869Z,14.52
2023-04-23T20:07:37.837Z,14.42
2023-04-23T20:11:39.962Z,14.26
2023-04-23T20:15:42.194Z,14.10
2023-04-23T20:19:44.993Z,14.00
2023-04-23T20:23:47.096Z,13.88
2023-04-23T20:27:50.609Z,13.74
2023-04-23T20:31:52.727Z,13.59
2023-04-23T20:35:56.829Z,13.44
2023-04-23T20:39:59.040Z,13.34
2023-04-23T20:44:02.057Z,13.17
2023-04-23T20:48:04.163Z,13.03
2023-04-23T20:52:07.403Z,12.94
2023-04-23T20:56:09.373Z,12.83
2023-04-23T21:00:14.461Z,12.72
2023-04-23T21:04:16.726Z,12.61
2023-04-23T21:08:18.963Z,12.63
2023-04-23T21:12:21.256Z,12.50
2023-04-23T21:16:23.383Z,12.39
2023-04-23T21:20:25.558Z,12.16
2023-04-23T21:24:27.779Z,12.12
2023-04-23T21:28:29.990Z,12.10
2023-04-23T21:32:32.073Z,12.05
2023-04-23T21:36:34.015Z,11.89
2023-04-23T21:40:40.246Z,11.74
2023-04-23T21:44:42.556Z,11.61
2023-04-23T21:48:44.580Z,11.50
2023-04-23T21:52:46.689Z,11.40
2023-04-23T21:56:48.851Z,11.00
2023-04-23T22:00:51.613Z,11.20
2023-04-23T22:04:53.713Z,11.12
2023-04-23T22:08:56.809Z,11.09
2023-04-23T22:12:58.857Z,11.05
2023-04-23T22:17:02.566Z,11.07
2023-04-23T22:21:04.632Z,11.06
2023-04-23T22:25:08.680Z,11.18
2023-04-23T22:29:10.777Z,11.26
2023-04-23T22:33:12.925Z,11.30
2023-04-23T22:37:15.753Z,11.31
2023-04-23T22:41:17.751Z,11.51
2023-04-23T22:45:19.782Z,11.58
2023-04-23T22:49:21.742Z,11.67
2023-04-23T22:53:23.821Z,11.80
2023-04-23T22:57:26.162Z,11.88
2023-04-23T23:01:28.245Z,11.86
2023-04-23T23:05:30.308Z,11.90
2023-04-23T23:09:32.473Z,11.91
2023-04-23T23:13:34.469Z,11.85
2023-04-23T23:17:36.610Z,11.59
2023-04-23T23:21:38.774Z,11.27
2023-04-23T23:25:41.088Z,10.99
2023-04-23T23:29:43.485Z,10.82
2023-04-23T23:33:45.933Z,10.72
2023-04-23T23:37:47.873Z,10.88
2023-04-23T23:41:49.981Z,10.93
2023-04-23T23:45:52.066Z,11.02
2023-04-23T23:49:54.080Z,10.91
2023-04-23T23:53:56.094Z,10.74
2023-04-23T23:57:58.544Z,10.61
